createdAt,value
2022-10-14T00:01:33.508Z,0.10
2022-10-14T00:04:02.796Z,0.12
2022-10-14T00:06:34.405Z,0.20
2022-10-14T00:09:10.099Z,0.25
2022-10-14T00:11:39.231Z,0.28
2022-10-14T00:14:20.336Z,0.33
2022-10-14T00:16:55.374Z,0.34
2022-10-14T00:19:24.262Z,0.33
2022-10-14T00:21:55.065Z,0.33
2022-10-14T00:24:24.149Z,0.42
2022-10-14T00:26:53.032Z,0.50
2022-10-14T00:29:21.844Z,0.49
2022-10-14T00:31:52.500Z,0.47
2022-10-14T00:34:21.613Z,0.48
2022-10-14T00:36:50.560Z,0.51
2022-10-14T00:39:20.640Z,0.56
2022-10-14T00:41:49.461Z,0.57
2022-10-14T00:44:18.272Z,0.63
2022-10-14T00:46:49.543Z,0.74
2022-10-14T00:49:24.192Z,0.83
2022-10-14T00:52:02.385Z,0.91
2022-10-14T00:54:39.591Z,1.00
2022-10-14T00:57:09.902Z,1.12
2022-10-14T00:59:39.681Z,1.12
2022-10-14T01:02:09.274Z,1.17
2022-10-14T01:04:41.857Z,1.26
2022-10-14T01:07:41.227Z,1.26
2022-10-14T01:10:13.386Z,1.28
2022-10-14T01:13:11.405Z,1.26
2022-10-14T01:16:02.950Z,1.23
2022-10-14T01:18:44.557Z,1.13
2022-10-14T01:21:19.023Z,1.04
2022-10-14T01:24:09.689Z,1.06
2022-10-14T01:27:02.996Z,1.24
2022-10-14T01:30:02.492Z,1.46
2022-10-14T01:33:02.177Z,1.77
2022-10-14T01:36:03.404Z,1.99
2022-10-14T01:38:43.704Z,2.16
2022-10-14T01:41:39.003Z,2.28
2022-10-14T01:44:12.017Z,2.49
2022-10-14T01:46:44.970Z,2.72
2022-10-14T01:49:20.547Z,2.85
2022-10-14T01:51:55.374Z,3.01
2022-10-14T01:54:33.744Z,3.24
2022-10-14T01:57:07.256Z,3.59
2022-10-14T01:59:37.394Z,4.04
2022-10-14T02:02:06.757Z,4.49
2022-10-14T02:04:35.800Z,4.69
2022-10-14T02:07:12.283Z,4.43
2022-10-14T02:09:49.632Z,4.05
2022-10-14T02:12:31.768Z,3.78
2022-10-14T02:15:10.835Z,3.77
2022-10-14T02:17:57.797Z,3.80
2022-10-14T02:20:29.066Z,3.86
2022-10-14T02:23:22.822Z,3.70
2022-10-14T02:25:54.048Z,3.44
2022-10-14T02:28:26.390Z,3.31
2022-10-14T02:31:02.930Z,3.23
2022-10-14T02:33:44.500Z,3.18
2022-10-14T02:36:17.695Z,3.20
2022-10-14T02:38:48.954Z,3.30
2022-10-14T02:41:22.052Z,3.54
2022-10-14T02:43:51.250Z,3.70
2022-10-14T02:46:22.776Z,3.85
2022-10-14T02:48:51.915Z,3.91
2022-10-14T02:51:21.461Z,3.82
2022-10-14T02:53:50.285Z,3.79
2022-10-14T02:56:20.690Z,3.73
2022-10-14T02:58:49.515Z,3.71
2022-10-14T03:01:18.924Z,3.88
2022-10-14T03:03:48.312Z,4.18
2022-10-14T03:06:17.531Z,4.55
2022-10-14T03:08:47.209Z,4.86
2022-10-14T03:11:16.077Z,5.17
2022-10-14T03:13:45.516Z,5.29
2022-10-14T03:16:14.392Z,5.32
2022-10-14T03:18:46.484Z,5.31
2022-10-14T03:21:23.049Z,5.22
2022-10-14T03:23:51.912Z,4.94
2022-10-14T03:26:27.558Z,4.66
2022-10-14T03:28:56.621Z,4.82
2022-10-14T03:31:31.283Z,5.21
2022-10-14T03:34:29.050Z,5.40
2022-10-14T03:37:07.227Z,5.24
2022-10-14T03:39:45.910Z,5.00
2022-10-14T03:42:16.119Z,4.74
2022-10-14T03:44:49.056Z,4.48
2022-10-14T03:47:25.237Z,4.47
2022-10-14T03:49:54.636Z,4.75
2022-10-14T03:52:35.757Z,5.63
2022-10-14T03:55:12.910Z,6.21
2022-10-14T03:57:44.242Z,6.16
2022-10-14T04:00:15.107Z,5.98
2022-10-14T04:02:44.106Z,5.96
2022-10-14T04:05:39.433Z,5.71
2022-10-14T04:08:16.682Z,5.38
2022-10-14T04:10:54.266Z,5.21
2022-10-14T04:13:24.468Z,5.01
2022-10-14T04:15:53.903Z,5.01
2022-10-14T04:18:31.047Z,5.13
2022-10-14T04:21:08.329Z,5.32
2022-10-14T04:23:38.333Z,6.46
2022-10-14T04:26:15.321Z,10.27
2022-10-14T04:28:46.858Z,13.30
2022-10-14T04:31:26.854Z,15.27
2022-10-14T04:34:02.098Z,16.25
2022-10-14T04:36:39.215Z,15.23
2022-10-14T04:39:21.906Z,15.09
2022-10-14T04:41:51.138Z,14.07
2022-10-14T04:44:22.607Z,15.06
2022-10-14T04:46:55.457Z,15.35
2022-10-14T04:49:26.785Z,15.23
2022-10-14T04:52:04.997Z,16.89
2022-10-14T04:54:45.449Z,16.67
2022-10-14T04:57:14.423Z,15.13
2022-10-14T04:59:47.555Z,12.78
2022-10-14T05:02:35.328Z,10.08
2022-10-14T05:05:04.689Z,8.53
2022-10-14T05:07:37.906Z,9.66
2022-10-14T05:10:45.090Z,12.48
2022-10-14T05:13:21.090Z,13.35
2022-10-14T05:16:00.325Z,15.47
2022-10-14T05:18:29.721Z,17.88
2022-10-14T05:21:05.175Z,18.91
2022-10-14T05:24:03.415Z,17.47
2022-10-14T05:26:35.312Z,14.70
2022-10-14T05:29:08.454Z,14.16
2022-10-14T05:31:37.713Z,16.47
2022-10-14T05:34:41.568Z,17.98
2022-10-14T05:37:14.410Z,18.82
2022-10-14T05:39:48.430Z,20.13
2022-10-14T05:42:23.906Z,21.35
2022-10-14T05:44:55.978Z,22.21
2022-10-14T05:47:25.980Z,21.60
2022-10-14T05:49:59.876Z,18.32
2022-10-14T05:52:34.078Z,15.13
2022-10-14T05:55:11.409Z,12.28
2022-10-14T05:57:40.397Z,10.47
2022-10-14T06:00:10.839Z,9.48
2022-10-14T06:02:45.916Z,8.79
2022-10-14T06:05:19.035Z,8.27
2022-10-14T06:07:48.904Z,7.77
2022-10-14T06:10:18.767Z,7.35
2022-10-14T06:12:48.161Z,7.81
2022-10-14T06:15:17.113Z,10.62
2022-10-14T06:17:46.121Z,13.53
2022-10-14T06:20:15.385Z,15.67
2022-10-14T06:22:44.338Z,17.30
2022-10-14T06:25:13.114Z,18.20
2022-10-14T06:27:41.909Z,19.16
2022-10-14T06:30:11.676Z,18.98
2022-10-14T06:32:40.574Z,17.32
2022-10-14T06:35:10.303Z,15.48
2022-10-14T06:37:39.356Z,13.66
2022-10-14T06:40:08.596Z,11.65
2022-10-14T06:42:37.527Z,9.56
2022-10-14T06:45:07.942Z,7.71
2022-10-14T06:47:36.774Z,6.70
2022-10-14T06:50:06.263Z,6.15
2022-10-14T06:52:35.122Z,5.99
2022-10-14T06:55:04.199Z,8.56
2022-10-14T06:57:33.043Z,12.03
2022-10-14T07:00:01.943Z,14.83
2022-10-14T07:02:34.422Z,16.86
2022-10-14T07:05:03.650Z,16.22
2022-10-14T07:07:33.841Z,13.85
2022-10-14T07:10:02.840Z,11.20
2022-10-14T07:12:32.236Z,8.89
2022-10-14T07:15:01.115Z,7.38
2022-10-14T07:17:31.805Z,6.45
2022-10-14T07:20:00.625Z,5.86
2022-10-14T07:22:29.684Z,5.44
2022-10-14T07:24:58.538Z,4.88
2022-10-14T07:27:27.379Z,4.26
2022-10-14T07:29:56.297Z,4.85
2022-10-14T07:32:25.328Z,5.38
2022-10-14T07:34:54.075Z,5.69
2022-10-14T07:37:23.233Z,7.83
2022-10-14T07:39:52.339Z,9.28
2022-10-14T07:44:55.043Z,10.29
2022-10-14T07:47:24.263Z,10.63
2022-10-14T07:49:53.417Z,11.32
2022-10-14T07:52:23.155Z,11.62
2022-10-14T07:54:51.974Z,12.60
2022-10-14T07:57:21.210Z,13.09
2022-10-14T07:59:50.519Z,12.66
2022-10-14T08:02:20.158Z,13.64
2022-10-14T08:04:54.165Z,14.73
2022-10-14T08:07:24.845Z,15.13
2022-10-14T08:09:57.153Z,15.39
2022-10-14T08:12:25.940Z,16.52
2022-10-14T08:14:57.900Z,15.70
2022-10-14T08:17:26.958Z,13.85
2022-10-14T08:19:55.841Z,12.09
2022-10-14T08:22:25.053Z,10.53
2022-10-14T08:24:53.980Z,9.42
2022-10-14T08:27:22.813Z,8.44
2022-10-14T08:29:51.624Z,7.56
2022-10-14T08:32:20.668Z,6.78
2022-10-14T08:34:49.743Z,6.30
2022-10-14T08:37:18.630Z,5.88
2022-10-14T08:39:47.487Z,5.57
2022-10-14T08:42:34.399Z,5.43
2022-10-14T08:45:09.463Z,5.33
2022-10-14T08:47:42.079Z,5.21
2022-10-14T08:50:37.562Z,5.06
2022-10-14T08:53:20.935Z,5.02
2022-10-14T08:55:55.273Z,4.81
2022-10-14T08:58:55.086Z,4.40
2022-10-14T09:01:41.258Z,3.94
2022-10-14T09:04:15.627Z,3.67
2022-10-14T09:06:47.914Z,3.48
2022-10-14T09:09:42.973Z,3.38
2022-10-14T09:12:22.870Z,3.19
2022-10-14T09:15:14.690Z,3.00
2022-10-14T09:18:12.976Z,2.82
2022-10-14T09:20:43.940Z,2.73
2022-10-14T09:23:23.318Z,2.64
2022-10-14T09:26:09.868Z,2.63
2022-10-14T09:28:42.319Z,2.79
2022-10-14T09:31:14.237Z,2.91
2022-10-14T09:33:45.493Z,2.86
2022-10-14T09:36:19.922Z,2.81
2022-10-14T09:38:55.210Z,2.68
2022-10-14T09:41:31.897Z,2.52
2022-10-14T09:44:22.947Z,2.32
2022-10-14T09:47:08.156Z,2.11
2022-10-14T09:49:48.511Z,1.92
2022-10-14T09:52:25.712Z,1.84
2022-10-14T09:55:01.635Z,1.80
2022-10-14T09:57:33.325Z,1.76
2022-10-14T10:00:05.822Z,1.76
2022-10-14T10:02:44.195Z,1.70
2022-10-14T10:05:34.040Z,1.54
2022-10-14T10:08:07.982Z,1.39
2022-10-14T10:10:36.839Z,1.24
2022-10-14T10:13:20.870Z,1.13
2022-10-14T10:16:06.884Z,0.99
2022-10-14T10:18:35.909Z,0.90
2022-10-14T10:21:08.436Z,0.80
2022-10-14T10:23:37.815Z,0.67
2022-10-14T10:26:23.628Z,0.62
2022-10-14T10:28:53.470Z,0.57
2022-10-14T10:31:29.162Z,0.47
2022-10-14T10:34:16.353Z,0.34
2022-10-14T10:36:53.485Z,0.27
2022-10-14T10:39:36.566Z,0.24
2022-10-14T10:42:27.695Z,0.15
2022-10-14T10:45:34.092Z,0.09
2022-10-14T10:48:14.326Z,0.05
2022-10-14T10:51:12.969Z,0.00
2022-10-14T10:53:52.726Z,-0.07
2022-10-14T10:56:27.644Z,-0.08
2022-10-14T10:59:03.704Z,-0.09
2022-10-14T11:01:48.410Z,-0.12
2022-10-14T11:04:33.251Z,-0.14
2022-10-14T11:07:38.960Z,-0.17
2022-10-14T11:10:55.132Z,-0.24
2022-10-14T11:13:32.365Z,-0.30
2022-10-14T11:16:21.839Z,-0.40
2022-10-14T11:18:57.324Z,-0.43
2022-10-14T11:21:36.610Z,-0.42
2022-10-14T11:24:11.403Z,-0.45
2022-10-14T11:27:06.130Z,-0.45
2022-10-14T11:29:48.150Z,-0.49
2022-10-14T11:32:34.901Z,-0.53
2022-10-14T11:35:06.853Z,-0.52
2022-10-14T11:37:53.658Z,-0.51
2022-10-14T11:40:25.326Z,-0.49
2022-10-14T11:43:22.986Z,-0.51
2022-10-14T11:45:51.804Z,-0.46
2022-10-14T11:48:36.189Z,-0.37
2022-10-14T11:51:18.532Z,-0.26
2022-10-14T11:53:56.334Z,-0.21
2022-10-14T11:56:47.605Z,-0.05
2022-10-14T11:59:25.634Z,0.05
2022-10-14T12:02:02.537Z,0.17
2022-10-14T12:04:41.932Z,0.23
2022-10-14T12:07:19.704Z,0.26
2022-10-14T12:10:20.617Z,0.27
2022-10-14T12:12:51.839Z,0.23
2022-10-14T12:15:24.118Z,0.27
2022-10-14T12:17:58.408Z,0.32
2022-10-14T12:21:05.603Z,0.33
2022-10-14T12:23:46.420Z,0.33
2022-10-14T12:26:46.218Z,0.34
2022-10-14T12:29:19.455Z,0.33
2022-10-14T12:32:09.654Z,0.32
2022-10-14T12:34:41.705Z,0.30
2022-10-14T12:37:31.444Z,0.27
2022-10-14T12:40:07.472Z,0.25
2022-10-14T12:42:45.749Z,0.22
2022-10-14T12:45:24.034Z,0.15
2022-10-14T12:48:16.377Z,0.17
2022-10-14T12:50:47.572Z,0.15
2022-10-14T12:53:23.273Z,0.16
2022-10-14T12:56:03.829Z,0.16
2022-10-14T12:58:37.217Z,0.15
2022-10-14T13:01:22.337Z,0.18
2022-10-14T13:04:08.967Z,0.13
2022-10-14T13:06:41.532Z,0.17
2022-10-14T13:09:13.445Z,0.16
2022-10-14T13:11:44.863Z,0.11
2022-10-14T13:14:28.547Z,0.04
2022-10-14T13:17:05.086Z,0.01
2022-10-14T13:19:33.948Z,0.03
2022-10-14T13:22:05.500Z,0.01
2022-10-14T13:24:42.378Z,0.01
2022-10-14T13:27:31.556Z,-0.05
2022-10-14T13:30:32.956Z,-0.03
2022-10-14T13:33:16.870Z,-0.04
2022-10-14T13:36:14.923Z,-0.04
2022-10-14T13:38:53.059Z,-0.06
2022-10-14T13:41:29.811Z,-0.05
2022-10-14T13:44:01.558Z,0.01
2022-10-14T13:46:40.179Z,0.05
2022-10-14T13:49:18.153Z,0.07
2022-10-14T13:51:53.812Z,0.06
2022-10-14T13:54:27.773Z,0.10
2022-10-14T14:02:49.072Z,0.06
2022-10-14T14:05:39.283Z,0.04
2022-10-14T14:08:41.370Z,-0.01
2022-10-14T14:11:19.884Z,-0.02
2022-10-14T14:13:59.852Z,-0.06
2022-10-14T14:16:59.722Z,-0.07
2022-10-14T14:19:36.099Z,-0.07
2022-10-14T14:22:10.156Z,-0.09
2022-10-14T14:24:44.936Z,-0.11
2022-10-14T14:27:24.153Z,-0.07
2022-10-14T14:29:54.904Z,-0.12
2022-10-14T14:32:33.864Z,-0.09
2022-10-14T14:35:12.898Z,-0.06
2022-10-14T14:37:55.534Z,-0.07
2022-10-14T14:40:27.804Z,-0.08
2022-10-14T14:43:00.284Z,-0.09
2022-10-14T14:45:38.119Z,-0.09
2022-10-14T14:48:08.630Z,-0.05
2022-10-14T14:50:40.778Z,-0.06
2022-10-14T14:53:15.750Z,-0.04
2022-10-14T14:55:46.221Z,-0.12
2022-10-14T14:58:49.820Z,-0.08
2022-10-14T15:01:23.202Z,-0.19
2022-10-14T15:04:16.466Z,-0.14
2022-10-14T15:07:04.697Z,-0.19
2022-10-14T15:09:47.154Z,-0.23
2022-10-14T15:12:26.241Z,-0.28
2022-10-14T15:15:00.316Z,-0.27
2022-10-14T15:17:33.574Z,-0.23
2022-10-14T15:20:05.619Z,-0.20
2022-10-14T15:22:39.570Z,-0.19
2022-10-14T15:25:11.474Z,-0.15
2022-10-14T15:27:46.681Z,-0.14
2022-10-14T15:30:33.469Z,-0.09
2022-10-14T15:33:21.595Z,-0.06
2022-10-14T15:36:03.474Z,-0.06
2022-10-14T15:41:06.466Z,0.04
2022-10-14T15:43:36.435Z,0.03
2022-10-14T15:46:23.888Z,0.09
2022-10-14T15:48:58.346Z,0.07
2022-10-14T15:51:31.192Z,0.06
2022-10-14T15:54:00.103Z,0.10
2022-10-14T15:56:30.493Z,0.09
2022-10-14T15:58:59.447Z,0.16
2022-10-14T16:01:29.088Z,0.19
2022-10-14T16:03:58.607Z,0.21
2022-10-14T16:06:29.965Z,0.23
2022-10-14T16:08:59.217Z,0.23
2022-10-14T16:11:30.759Z,0.20
2022-10-14T16:13:59.506Z,0.19
2022-10-14T16:16:51.612Z,0.16
2022-10-14T16:19:20.470Z,0.17
2022-10-14T16:21:50.297Z,0.17
2022-10-14T16:24:21.972Z,0.17
2022-10-14T16:26:51.561Z,0.13
2022-10-14T16:29:21.490Z,0.14
2022-10-14T16:31:51.454Z,0.11
2022-10-14T16:34:23.377Z,0.14
2022-10-14T16:36:52.571Z,0.14
2022-10-14T16:39:21.421Z,0.15
2022-10-14T16:41:50.332Z,0.13
2022-10-14T16:44:25.154Z,0.13
2022-10-14T16:47:16.794Z,0.09
2022-10-14T16:49:47.964Z,0.09
2022-10-14T16:52:17.258Z,0.09
2022-10-14T16:54:46.106Z,0.07
2022-10-14T16:57:15.425Z,0.01
2022-10-14T16:59:44.379Z,-0.05
2022-10-14T17:02:18.637Z,-0.07
2022-10-14T17:04:48.760Z,-0.11
2022-10-14T17:07:18.026Z,-0.14
2022-10-14T17:09:46.827Z,-0.15
2022-10-14T17:12:15.581Z,-0.17
2022-10-14T17:14:44.583Z,-0.20
2022-10-14T17:17:13.692Z,-0.23
2022-10-14T17:19:43.417Z,-0.26
2022-10-14T17:22:12.924Z,-0.24
2022-10-14T17:24:41.709Z,-0.24
2022-10-14T17:27:11.384Z,-0.26
2022-10-14T17:29:40.335Z,-0.22
2022-10-14T17:32:09.203Z,-0.28
2022-10-14T17:34:38.270Z,-0.25
2022-10-14T17:39:38.303Z,-0.23
2022-10-14T17:42:07.076Z,-0.23
2022-10-14T17:44:37.965Z,-0.24
2022-10-14T17:47:10.267Z,-0.26
2022-10-14T17:49:39.126Z,-0.25
2022-10-14T17:52:08.292Z,-0.25
2022-10-14T17:54:37.178Z,-0.25
2022-10-14T17:57:05.980Z,-0.28
2022-10-14T17:59:35.640Z,-0.26
2022-10-14T18:02:06.188Z,-0.30
2022-10-14T18:04:35.389Z,-0.30
2022-10-14T18:07:04.224Z,-0.29
2022-10-14T18:09:34.475Z,-0.29
2022-10-14T18:12:08.773Z,-0.26
2022-10-14T18:14:39.638Z,-0.23
2022-10-14T18:17:11.217Z,-0.19
2022-10-14T18:19:47.253Z,-0.19
2022-10-14T18:22:20.080Z,-0.21
2022-10-14T18:24:48.907Z,-0.14
2022-10-14T18:27:17.692Z,-0.15
2022-10-14T18:29:46.457Z,-0.17
2022-10-14T18:32:15.286Z,-0.13
2022-10-14T18:34:44.586Z,-0.09
2022-10-14T18:37:13.373Z,-0.07
2022-10-14T18:39:42.265Z,-0.02
2022-10-14T18:42:11.012Z,0.01
2022-10-14T18:44:39.753Z,0.02
2022-10-14T18:47:08.780Z,0.05
2022-10-14T18:49:40.038Z,0.05
2022-10-14T18:52:09.958Z,0.01
2022-10-14T18:54:38.971Z,0.05
2022-10-14T18:57:07.795Z,0.10
2022-10-14T18:59:36.808Z,0.09
2022-10-14T19:02:06.796Z,0.05
2022-10-14T19:04:35.978Z,0.04
2022-10-14T19:07:05.925Z,0.01
2022-10-14T19:09:35.081Z,0.03
2022-10-14T19:12:24.196Z,-0.02
2022-10-14T19:14:53.192Z,-0.02
2022-10-14T19:17:21.954Z,-0.04
2022-10-14T19:19:50.946Z,-0.08
2022-10-14T19:22:19.964Z,-0.07
2022-10-14T19:24:48.871Z,-0.06
2022-10-14T19:27:17.644Z,-0.05
2022-10-14T19:29:46.445Z,-0.05
2022-10-14T19:32:15.182Z,-0.03
2022-10-14T19:34:47.260Z,-0.05
2022-10-14T19:37:16.339Z,-0.07
2022-10-14T19:39:45.267Z,-0.09
2022-10-14T19:42:14.319Z,-0.11
2022-10-14T19:44:43.143Z,-0.11
2022-10-14T19:47:12.481Z,-0.11
2022-10-14T19:49:41.301Z,-0.10
2022-10-14T19:52:10.151Z,-0.13
2022-10-14T19:54:39.076Z,-0.18
2022-10-14T19:57:07.858Z,-0.19
2022-10-14T19:59:36.606Z,-0.14
2022-10-14T20:02:06.048Z,-0.14
2022-10-14T20:04:35.021Z,-0.15
2022-10-14T20:07:03.883Z,-0.14
2022-10-14T20:09:32.632Z,-0.12
2022-10-14T20:12:01.452Z,-0.08
2022-10-14T20:14:30.986Z,-0.04
2022-10-14T20:16:59.697Z,-0.05
2022-10-14T20:19:28.504Z,-0.02
2022-10-14T20:21:57.365Z,-0.02
2022-10-14T20:24:26.107Z,-0.03
2022-10-14T20:26:55.918Z,-0.01
2022-10-14T20:29:24.793Z,0.04
2022-10-14T20:31:54.742Z,0.03
2022-10-14T20:34:23.578Z,0.11
2022-10-14T20:36:53.842Z,0.11
2022-10-14T20:39:23.893Z,0.14
2022-10-14T20:41:53.050Z,0.16
2022-10-14T20:44:23.913Z,0.20
2022-10-14T20:46:52.952Z,0.25
2022-10-14T20:49:21.711Z,0.21
2022-10-14T20:51:50.589Z,0.25
2022-10-14T20:54:19.362Z,0.25
2022-10-14T20:56:50.038Z,0.23
2022-10-14T20:59:18.797Z,0.26
2022-10-14T21:01:48.165Z,0.24
2022-10-14T21:04:17.143Z,0.22
2022-10-14T21:06:45.980Z,0.24
2022-10-14T21:09:14.822Z,0.26
2022-10-14T21:11:43.781Z,0.27
2022-10-14T21:14:12.712Z,0.14
2022-10-14T21:16:42.807Z,0.08
2022-10-14T21:19:11.758Z,0.20
2022-10-14T21:21:49.827Z,0.16
2022-10-14T21:24:19.879Z,0.13
2022-10-14T21:26:52.556Z,0.14
2022-10-14T21:29:22.402Z,0.15
2022-10-14T21:31:51.267Z,0.12
2022-10-14T21:34:20.352Z,0.11
2022-10-14T21:36:49.141Z,0.13
2022-10-14T21:39:18.947Z,0.13
2022-10-14T21:41:47.859Z,0.09
2022-10-14T21:44:20.273Z,0.08
2022-10-14T21:46:49.681Z,0.04
2022-10-14T21:49:18.880Z,-0.01
2022-10-14T21:51:47.653Z,-0.01
2022-10-14T21:54:16.532Z,-0.03
2022-10-14T21:56:45.317Z,-0.04
2022-10-14T21:59:14.184Z,-0.03
2022-10-14T22:01:44.039Z,-0.02
2022-10-14T22:04:13.114Z,0.01
2022-10-14T22:06:41.893Z,0.03
2022-10-14T22:09:11.150Z,0.04
2022-10-14T22:11:41.848Z,0.02
2022-10-14T22:14:17.818Z,-0.02
2022-10-14T22:16:47.739Z,-0.03
2022-10-14T22:19:17.106Z,-0.05
2022-10-14T22:21:46.916Z,-0.01
2022-10-14T22:24:15.814Z,-0.05
2022-10-14T22:26:44.643Z,-0.06
2022-10-14T22:29:14.814Z,-0.06
2022-10-14T22:31:44.365Z,-0.06
2022-10-14T22:34:15.976Z,-0.03
2022-10-14T22:36:45.407Z,-0.03
2022-10-14T22:39:16.768Z,0.02
2022-10-14T22:41:45.756Z,0.01
2022-10-14T22:44:14.581Z,0.03
2022-10-14T22:46:43.352Z,-0.02
2022-10-14T22:49:12.054Z,-0.02
2022-10-14T22:51:41.254Z,-0.06
2022-10-14T22:54:10.928Z,-0.07
2022-10-14T22:56:40.774Z,-0.06
2022-10-14T22:59:12.369Z,-0.05
2022-10-14T23:01:43.707Z,-0.06
2022-10-14T23:04:12.824Z,-0.09
2022-10-14T23:06:44.286Z,-0.14
2022-10-14T23:09:13.369Z,-0.10
2022-10-14T23:11:42.273Z,-0.12
2022-10-14T23:14:11.061Z,-0.14
2022-10-14T23:16:40.126Z,-0.19
2022-10-14T23:19:09.182Z,-0.18
2022-10-14T23:21:39.505Z,-0.17
2022-10-14T23:24:11.350Z,-0.15
2022-10-14T23:26:40.484Z,-0.19
2022-10-14T23:29:12.066Z,-0.17
2022-10-14T23:31:42.034Z,-0.15
2022-10-14T23:34:15.289Z,-0.17
2022-10-14T23:36:44.310Z,-0.23
2022-10-14T23:39:17.053Z,-0.26
2022-10-14T23:41:45.857Z,-0.23
2022-10-14T23:44:14.823Z,-0.29
2022-10-14T23:46:43.765Z,-0.31
2022-10-14T23:49:25.658Z,-0.30
2022-10-14T23:51:55.956Z,-0.28
2022-10-14T23:54:24.995Z,-0.30
2022-10-14T23:56:53.967Z,-0.26
2022-10-14T23:59:22.841Z,-0.26
